sensor_id;sensor_type;location;lat;lon;timestamp;P1;durP1;ratioP1;P2;durP2;ratioP2
67997;SDS011;54773;53.388;-1.504;2022-08-21T00:00:40;8.05;;;2.03;;
67997;SDS011;54773;53.388;-1.504;2022-08-21T00:03:07;8.52;;;2.50;;
67997;SDS011;54773;53.388;-1.504;2022-08-21T00:05:36;7.07;;;2.47;;
67997;SDS011;54773;53.388;-1.504;2022-08-21T00:08:04;10.93;;;2.45;;
67997;SDS011;54773;53.388;-1.504;2022-08-21T00:10:30;9.60;;;2.15;;
67997;SDS011;54773;53.388;-1.504;2022-08-21T00:12:56;11.60;;;2.22;;
67997;SDS011;54773;53.388;-1.504;2022-08-21T00:15:29;7.45;;;1.90;;
67997;SDS011;54773;53.388;-1.504;2022-08-21T00:17:59;8.82;;;2.20;;
67997;SDS011;54773;53.388;-1.504;2022-08-21T00:20:25;7.78;;;2.30;;
67997;SDS011;54773;53.388;-1.504;2022-08-21T00:22:51;8.23;;;2.17;;
67997;SDS011;54773;53.388;-1.504;2022-08-21T00:25:17;11.68;;;2.58;;
67997;SDS011;54773;53.388;-1.504;2022-08-21T00:27:43;6.22;;;2.08;;
67997;SDS011;54773;53.388;-1.504;2022-08-21T00:30:10;11.05;;;2.22;;
67997;SDS011;54773;53.388;-1.504;2022-08-21T00:32:37;9.60;;;2.58;;
67997;SDS011;54773;53.388;-1.504;2022-08-21T00:35:05;7.53;;;2.10;;
67997;SDS011;54773;53.388;-1.504;2022-08-21T00:37:32;9.43;;;2.13;;
67997;SDS011;54773;53.388;-1.504;2022-08-21T00:39:58;9.82;;;2.50;;
67997;SDS011;54773;53.388;-1.504;2022-08-21T00:42:24;5.97;;;2.53;;
67997;SDS011;54773;53.388;-1.504;2022-08-21T00:44:50;6.40;;;2.03;;
67997;SDS011;54773;53.388;-1.504;2022-08-21T00:47:17;7.70;;;2.03;;
67997;SDS011;54773;53.388;-1.504;2022-08-21T00:49:44;10.57;;;2.67;;
67997;SDS011;54773;53.388;-1.504;2022-08-21T00:52:12;10.52;;;2.45;;
67997;SDS011;54773;53.388;-1.504;2022-08-21T00:54:41;11.75;;;2.28;;
67997;SDS011;54773;53.388;-1.504;2022-08-21T00:57:09;7.80;;;2.50;;
67997;SDS011;54773;53.388;-1.504;2022-08-21T00:59:39;12.77;;;2.47;;
67997;SDS011;54773;53.388;-1.504;2022-08-21T01:02:06;14.48;;;3.60;;
67997;SDS011;54773;53.388;-1.504;2022-08-21T01:04:33;14.60;;;2.67;;
67997;SDS011;54773;53.388;-1.504;2022-08-21T01:06:59;10.07;;;2.45;;
67997;SDS011;54773;53.388;-1.504;2022-08-21T01:09:25;7.88;;;2.30;;
67997;SDS011;54773;53.388;-1.504;2022-08-21T01:11:50;9.48;;;2.40;;
67997;SDS011;54773;53.388;-1.504;2022-08-21T01:14:16;7.28;;;2.60;;
67997;SDS011;54773;53.388;-1.504;2022-08-21T01:16:44;11.05;;;2.63;;
67997;SDS011;54773;53.388;-1.504;2022-08-21T01:19:11;11.15;;;2.70;;
67997;SDS011;54773;53.388;-1.504;2022-08-21T01:21:37;8.90;;;2.65;;
67997;SDS011;54773;53.388;-1.504;2022-08-21T01:24:03;10.52;;;2.70;;
67997;SDS011;54773;53.388;-1.504;2022-08-21T01:26:30;8.68;;;2.30;;
67997;SDS011;54773;53.388;-1.504;2022-08-21T01:29:16;7.13;;;2.35;;
67997;SDS011;54773;53.388;-1.504;2022-08-21T01:31:48;7.30;;;2.47;;
67997;SDS011;54773;53.388;-1.504;2022-08-21T01:34:14;9.73;;;2.88;;
67997;SDS011;54773;53.388;-1.504;2022-08-21T01:36:41;8.43;;;2.55;;
67997;SDS011;54773;53.388;-1.504;2022-08-21T01:39:08;6.72;;;2.45;;
67997;SDS011;54773;53.388;-1.504;2022-08-21T01:41:34;14.55;;;3.20;;
67997;SDS011;54773;53.388;-1.504;2022-08-21T01:43:59;8.73;;;2.90;;
67997;SDS011;54773;53.388;-1.504;2022-08-21T01:46:25;13.00;;;2.88;;
67997;SDS011;54773;53.388;-1.504;2022-08-21T01:48:50;10.63;;;2.50;;
67997;SDS011;54773;53.388;-1.504;2022-08-21T01:51:16;12.50;;;3.08;;
67997;SDS011;54773;53.388;-1.504;2022-08-21T01:53:42;8.07;;;2.45;;
67997;SDS011;54773;53.388;-1.504;2022-08-21T01:56:09;11.98;;;3.55;;
67997;SDS011;54773;53.388;-1.504;2022-08-21T01:58:35;12.65;;;3.40;;
67997;SDS011;54773;53.388;-1.504;2022-08-21T02:01:01;9.10;;;2.97;;
67997;SDS011;54773;53.388;-1.504;2022-08-21T02:03:28;8.85;;;2.85;;
67997;SDS011;54773;53.388;-1.504;2022-08-21T02:05:54;11.73;;;3.05;;
67997;SDS011;54773;53.388;-1.504;2022-08-21T02:08:20;9.00;;;2.53;;
67997;SDS011;54773;53.388;-1.504;2022-08-21T02:10:49;9.52;;;2.80;;
67997;SDS011;54773;53.388;-1.504;2022-08-21T02:13:16;9.25;;;2.92;;
67997;SDS011;54773;53.388;-1.504;2022-08-21T02:15:42;12.70;;;2.67;;
67997;SDS011;54773;53.388;-1.504;2022-08-21T02:18:08;9.10;;;3.00;;
67997;SDS011;54773;53.388;-1.504;2022-08-21T02:20:38;10.98;;;2.90;;
67997;SDS011;54773;53.388;-1.504;2022-08-21T02:23:06;10.85;;;3.05;;
67997;SDS011;54773;53.388;-1.504;2022-08-21T02:25:33;10.70;;;2.75;;
67997;SDS011;54773;53.388;-1.504;2022-08-21T02:27:59;10.25;;;3.00;;
67997;SDS011;54773;53.388;-1.504;2022-08-21T02:30:31;7.90;;;2.70;;
67997;SDS011;54773;53.388;-1.504;2022-08-21T02:32:58;8.57;;;2.65;;
67997;SDS011;54773;53.388;-1.504;2022-08-21T02:35:24;8.05;;;2.72;;
67997;SDS011;54773;53.388;-1.504;2022-08-21T02:37:52;9.52;;;2.92;;
67997;SDS011;54773;53.388;-1.504;2022-08-21T02:40:23;8.18;;;3.38;;
67997;SDS011;54773;53.388;-1.504;2022-08-21T02:42:51;11.35;;;2.78;;
67997;SDS011;54773;53.388;-1.504;2022-08-21T02:45:17;15.93;;;3.25;;
67997;SDS011;54773;53.388;-1.504;2022-08-21T02:47:48;11.18;;;3.13;;
67997;SDS011;54773;53.388;-1.504;2022-08-21T02:50:20;10.20;;;3.60;;
67997;SDS011;54773;53.388;-1.504;2022-08-21T02:52:48;9.68;;;2.75;;
67997;SDS011;54773;53.388;-1.504;2022-08-21T02:55:14;10.10;;;2.60;;
67997;SDS011;54773;53.388;-1.504;2022-08-21T02:57:40;9.30;;;2.90;;
67997;SDS011;54773;53.388;-1.504;2022-08-21T03:00:06;10.98;;;2.70;;
67997;SDS011;54773;53.388;-1.504;2022-08-21T03:02:33;15.30;;;3.92;;
67997;SDS011;54773;53.388;-1.504;2022-08-21T03:04:59;13.13;;;3.08;;
67997;SDS011;54773;53.388;-1.504;2022-08-21T03:07:25;10.10;;;3.03;;
67997;SDS011;54773;53.388;-1.504;2022-08-21T03:09:54;9.18;;;3.35;;
67997;SDS011;54773;53.388;-1.504;2022-08-21T03:12:19;6.63;;;2.85;;
67997;SDS011;54773;53.388;-1.504;2022-08-21T03:14:45;9.68;;;3.35;;
67997;SDS011;54773;53.388;-1.504;2022-08-21T03:17:10;11.93;;;3.60;;
67997;SDS011;54773;53.388;-1.504;2022-08-21T03:19:36;13.38;;;3.75;;
67997;SDS011;54773;53.388;-1.504;2022-08-21T03:22:02;11.13;;;3.30;;
67997;SDS011;54773;53.388;-1.504;2022-08-21T03:24:27;10.73;;;3.40;;
67997;SDS011;54773;53.388;-1.504;2022-08-21T03:26:53;10.75;;;2.95;;
67997;SDS011;54773;53.388;-1.504;2022-08-21T03:29:18;12.27;;;3.80;;
67997;SDS011;54773;53.388;-1.504;2022-08-21T03:31:43;10.13;;;3.10;;
67997;SDS011;54773;53.388;-1.504;2022-08-21T03:34:09;9.57;;;3.15;;
67997;SDS011;54773;53.388;-1.504;2022-08-21T03:36:35;15.45;;;3.78;;
67997;SDS011;54773;53.388;-1.504;2022-08-21T03:39:00;12.13;;;2.90;;
67997;SDS011;54773;53.388;-1.504;2022-08-21T03:41:26;11.05;;;3.50;;
67997;SDS011;54773;53.388;-1.504;2022-08-21T03:43:51;9.15;;;3.17;;
67997;SDS011;54773;53.388;-1.504;2022-08-21T03:46:17;10.93;;;3.53;;
67997;SDS011;54773;53.388;-1.504;2022-08-21T03:48:43;13.43;;;3.33;;
67997;SDS011;54773;53.388;-1.504;2022-08-21T03:51:09;13.07;;;3.33;;
67997;SDS011;54773;53.388;-1.504;2022-08-21T03:53:35;11.52;;;3.72;;
67997;SDS011;54773;53.388;-1.504;2022-08-21T03:56:01;11.73;;;3.63;;
67997;SDS011;54773;53.388;-1.504;2022-08-21T03:58:27;10.50;;;3.28;;
67997;SDS011;54773;53.388;-1.504;2022-08-21T04:00:55;9.90;;;3.25;;
67997;SDS011;54773;53.388;-1.504;2022-08-21T04:03:22;12.80;;;4.22;;
67997;SDS011;54773;53.388;-1.504;2022-08-21T04:05:48;11.23;;;3.63;;
67997;SDS011;54773;53.388;-1.504;2022-08-21T04:08:14;15.35;;;4.10;;
67997;SDS011;54773;53.388;-1.504;2022-08-21T04:10:42;13.88;;;5.07;;
67997;SDS011;54773;53.388;-1.504;2022-08-21T04:13:08;13.65;;;5.18;;
67997;SDS011;54773;53.388;-1.504;2022-08-21T04:15:34;12.70;;;5.47;;
67997;SDS011;54773;53.388;-1.504;2022-08-21T04:18:00;15.13;;;6.68;;
67997;SDS011;54773;53.388;-1.504;2022-08-21T04:20:26;16.65;;;7.68;;
67997;SDS011;54773;53.388;-1.504;2022-08-21T04:22:52;15.75;;;7.53;;
67997;SDS011;54773;53.388;-1.504;2022-08-21T04:25:19;16.27;;;7.15;;
67997;SDS011;54773;53.388;-1.504;2022-08-21T04:27:47;17.08;;;6.53;;
67997;SDS011;54773;53.388;-1.504;2022-08-21T04:30:13;17.75;;;7.43;;
67997;SDS011;54773;53.388;-1.504;2022-08-21T04:32:47;10.77;;;5.35;;
67997;SDS011;54773;53.388;-1.504;2022-08-21T04:35:14;11.38;;;6.00;;
67997;SDS011;54773;53.388;-1.504;2022-08-21T04:37:41;9.35;;;4.13;;
67997;SDS011;54773;53.388;-1.504;2022-08-21T04:40:07;12.30;;;4.00;;
67997;SDS011;54773;53.388;-1.504;2022-08-21T04:42:39;9.07;;;4.10;;
67997;SDS011;54773;53.388;-1.504;2022-08-21T04:45:07;11.45;;;4.35;;
67997;SDS011;54773;53.388;-1.504;2022-08-21T04:47:33;12.27;;;5.00;;
67997;SDS011;54773;53.388;-1.504;2022-08-21T04:49:58;10.45;;;5.93;;
67997;SDS011;54773;53.388;-1.504;2022-08-21T04:52:24;15.88;;;5.90;;
67997;SDS011;54773;53.388;-1.504;2022-08-21T04:54:49;14.80;;;6.05;;
67997;SDS011;54773;53.388;-1.504;2022-08-21T04:57:16;14.10;;;6.50;;
67997;SDS011;54773;53.388;-1.504;2022-08-21T04:59:44;11.30;;;5.40;;
67997;SDS011;54773;53.388;-1.504;2022-08-21T05:02:12;10.13;;;5.57;;
67997;SDS011;54773;53.388;-1.504;2022-08-21T05:04:42;14.43;;;5.22;;
67997;SDS011;54773;53.388;-1.504;2022-08-21T05:07:12;10.20;;;4.78;;
67997;SDS011;54773;53.388;-1.504;2022-08-21T05:09:42;11.07;;;5.15;;
67997;SDS011;54773;53.388;-1.504;2022-08-21T05:12:08;11.20;;;5.68;;
67997;SDS011;54773;53.388;-1.504;2022-08-21T05:14:34;9.90;;;5.20;;
67997;SDS011;54773;53.388;-1.504;2022-08-21T05:17:00;9.50;;;5.00;;
67997;SDS011;54773;53.388;-1.504;2022-08-21T05:19:25;12.68;;;5.18;;
67997;SDS011;54773;53.388;-1.504;2022-08-21T05:21:52;12.05;;;4.82;;
67997;SDS011;54773;53.388;-1.504;2022-08-21T05:24:18;10.75;;;5.38;;
67997;SDS011;54773;53.388;-1.504;2022-08-21T05:26:43;11.82;;;5.90;;
67997;SDS011;54773;53.388;-1.504;2022-08-21T05:29:09;11.50;;;5.68;;
67997;SDS011;54773;53.388;-1.504;2022-08-21T05:31:36;11.07;;;4.78;;
67997;SDS011;54773;53.388;-1.504;2022-08-21T05:34:02;13.85;;;6.47;;
67997;SDS011;54773;53.388;-1.504;2022-08-21T05:36:28;10.80;;;5.50;;
67997;SDS011;54773;53.388;-1.504;2022-08-21T05:38:55;8.90;;;5.20;;
67997;SDS011;54773;53.388;-1.504;2022-08-21T05:41:20;12.00;;;5.38;;
67997;SDS011;54773;53.388;-1.504;2022-08-21T05:43:51;12.52;;;5.70;;
67997;SDS011;54773;53.388;-1.504;2022-08-21T05:46:17;13.30;;;5.40;;
67997;SDS011;54773;53.388;-1.504;2022-08-21T05:48:42;9.95;;;5.45;;
67997;SDS011;54773;53.388;-1.504;2022-08-21T05:51:09;11.50;;;4.75;;
67997;SDS011;54773;53.388;-1.504;2022-08-21T05:53:37;11.75;;;4.18;;
67997;SDS011;54773;53.388;-1.504;2022-08-21T05:56:03;8.10;;;3.65;;
67997;SDS011;54773;53.388;-1.504;2022-08-21T05:58:30;11.55;;;3.97;;
67997;SDS011;54773;53.388;-1.504;2022-08-21T06:00:59;12.63;;;4.07;;
67997;SDS011;54773;53.388;-1.504;2022-08-21T06:03:26;8.23;;;4.10;;
67997;SDS011;54773;53.388;-1.504;2022-08-21T06:05:53;11.45;;;3.70;;
67997;SDS011;54773;53.388;-1.504;2022-08-21T06:08:20;8.82;;;3.25;;
67997;SDS011;54773;53.388;-1.504;2022-08-21T06:10:47;9.98;;;3.55;;
67997;SDS011;54773;53.388;-1.504;2022-08-21T06:13:14;9.18;;;3.53;;
67997;SDS011;54773;53.388;-1.504;2022-08-21T06:15:40;9.65;;;2.97;;
67997;SDS011;54773;53.388;-1.504;2022-08-21T06:18:06;8.10;;;2.80;;
67997;SDS011;54773;53.388;-1.504;2022-08-21T06:20:32;9.40;;;2.70;;
67997;SDS011;54773;53.388;-1.504;2022-08-21T06:22:58;7.47;;;2.35;;
67997;SDS011;54773;53.388;-1.504;2022-08-21T06:25:24;8.35;;;2.70;;
67997;SDS011;54773;53.388;-1.504;2022-08-21T06:27:50;7.07;;;2.60;;
67997;SDS011;54773;53.388;-1.504;2022-08-21T06:30:16;10.70;;;3.00;;
67997;SDS011;54773;53.388;-1.504;2022-08-21T06:32:43;7.22;;;3.03;;
67997;SDS011;54773;53.388;-1.504;2022-08-21T06:35:09;6.90;;;2.50;;
67997;SDS011;54773;53.388;-1.504;2022-08-21T06:37:35;6.82;;;2.80;;
67997;SDS011;54773;53.388;-1.504;2022-08-21T06:40:01;7.03;;;2.80;;
67997;SDS011;54773;53.388;-1.504;2022-08-21T06:42:28;9.00;;;3.30;;
67997;SDS011;54773;53.388;-1.504;2022-08-21T06:44:56;8.75;;;2.90;;
67997;SDS011;54773;53.388;-1.504;2022-08-21T06:47:25;12.32;;;3.85;;
67997;SDS011;54773;53.388;-1.504;2022-08-21T06:49:57;8.70;;;3.65;;
67997;SDS011;54773;53.388;-1.504;2022-08-21T06:52:22;7.57;;;3.08;;
67997;SDS011;54773;53.388;-1.504;2022-08-21T06:54:48;10.05;;;3.58;;
67997;SDS011;54773;53.388;-1.504;2022-08-21T06:57:13;12.07;;;3.90;;
67997;SDS011;54773;53.388;-1.504;2022-08-21T06:59:39;9.02;;;3.50;;
67997;SDS011;54773;53.388;-1.504;2022-08-21T07:02:04;7.10;;;3.20;;
67997;SDS011;54773;53.388;-1.504;2022-08-21T07:04:30;9.63;;;3.05;;
67997;SDS011;54773;53.388;-1.504;2022-08-21T07:06:55;9.48;;;3.42;;
67997;SDS011;54773;53.388;-1.504;2022-08-21T07:09:21;9.63;;;3.60;;
67997;SDS011;54773;53.388;-1.504;2022-08-21T07:11:48;11.48;;;3.80;;
67997;SDS011;54773;53.388;-1.504;2022-08-21T07:14:15;10.75;;;3.72;;
67997;SDS011;54773;53.388;-1.504;2022-08-21T07:16:40;10.15;;;3.35;;
67997;SDS011;54773;53.388;-1.504;2022-08-21T07:19:07;9.85;;;3.53;;
67997;SDS011;54773;53.388;-1.504;2022-08-21T07:21:33;9.40;;;3.92;;
67997;SDS011;54773;53.388;-1.504;2022-08-21T07:23:59;10.98;;;3.60;;
67997;SDS011;54773;53.388;-1.504;2022-08-21T07:26:24;11.75;;;3.60;;
67997;SDS011;54773;53.388;-1.504;2022-08-21T07:28:52;6.80;;;3.33;;
67997;SDS011;54773;53.388;-1.504;2022-08-21T07:31:22;13.07;;;3.80;;
67997;SDS011;54773;53.388;-1.504;2022-08-21T07:33:51;6.72;;;3.70;;
67997;SDS011;54773;53.388;-1.504;2022-08-21T07:36:16;11.40;;;4.03;;
67997;SDS011;54773;53.388;-1.504;2022-08-21T07:38:42;10.38;;;3.28;;
67997;SDS011;54773;53.388;-1.504;2022-08-21T07:43:46;8.15;;;3.92;;
67997;SDS011;54773;53.388;-1.504;2022-08-21T07:46:13;9.18;;;3.45;;
67997;SDS011;54773;53.388;-1.504;2022-08-21T07:48:39;8.77;;;3.13;;
67997;SDS011;54773;53.388;-1.504;2022-08-21T07:51:08;7.70;;;3.03;;
67997;SDS011;54773;53.388;-1.504;2022-08-21T07:53:40;14.30;;;3.45;;
67997;SDS011;54773;53.388;-1.504;2022-08-21T07:56:06;13.15;;;3.35;;
67997;SDS011;54773;53.388;-1.504;2022-08-21T07:58:36;11.50;;;3.10;;
67997;SDS011;54773;53.388;-1.504;2022-08-21T08:01:02;6.65;;;2.92;;
67997;SDS011;54773;53.388;-1.504;2022-08-21T08:03:27;7.05;;;2.40;;
67997;SDS011;54773;53.388;-1.504;2022-08-21T08:05:53;7.72;;;2.92;;
67997;SDS011;54773;53.388;-1.504;2022-08-21T08:08:18;6.30;;;2.42;;
67997;SDS011;54773;53.388;-1.504;2022-08-21T08:10:44;9.00;;;2.67;;
67997;SDS011;54773;53.388;-1.504;2022-08-21T08:13:10;7.57;;;2.78;;
67997;SDS011;54773;53.388;-1.504;2022-08-21T08:15:36;5.88;;;2.63;;
67997;SDS011;54773;53.388;-1.504;2022-08-21T08:18:02;7.43;;;2.67;;
67997;SDS011;54773;53.388;-1.504;2022-08-21T08:20:28;7.00;;;2.30;;
67997;SDS011;54773;53.388;-1.504;2022-08-21T08:22:54;7.47;;;2.30;;
67997;SDS011;54773;53.388;-1.504;2022-08-21T08:25:20;9.13;;;2.50;;
67997;SDS011;54773;53.388;-1.504;2022-08-21T08:27:47;9.07;;;3.00;;
67997;SDS011;54773;53.388;-1.504;2022-08-21T08:30:14;8.85;;;2.90;;
67997;SDS011;54773;53.388;-1.504;2022-08-21T08:32:43;7.95;;;2.63;;
67997;SDS011;54773;53.388;-1.504;2022-08-21T08:35:09;10.20;;;2.42;;
67997;SDS011;54773;53.388;-1.504;2022-08-21T08:37:36;6.22;;;2.67;;
67997;SDS011;54773;53.388;-1.504;2022-08-21T08:40:05;8.63;;;2.53;;
67997;SDS011;54773;53.388;-1.504;2022-08-21T08:42:34;4.47;;;1.98;;
67997;SDS011;54773;53.388;-1.504;2022-08-21T08:45:19;8.57;;;2.47;;
67997;SDS011;54773;53.388;-1.504;2022-08-21T08:47:50;9.38;;;2.40;;
67997;SDS011;54773;53.388;-1.504;2022-08-21T08:53:17;8.60;;;2.20;;
67997;SDS011;54773;53.388;-1.504;2022-08-21T08:55:45;6.78;;;2.22;;
67997;SDS011;54773;53.388;-1.504;2022-08-21T08:58:27;7.03;;;2.10;;
67997;SDS011;54773;53.388;-1.504;2022-08-21T09:00:58;5.30;;;2.28;;
67997;SDS011;54773;53.388;-1.504;2022-08-21T09:03:24;6.25;;;1.67;;
67997;SDS011;54773;53.388;-1.504;2022-08-21T09:06:00;5.75;;;1.90;;
67997;SDS011;54773;53.388;-1.504;2022-08-21T09:27:43;7.57;;;2.00;;
67997;SDS011;54773;53.388;-1.504;2022-08-21T09:30:08;5.22;;;1.50;;
67997;SDS011;54773;53.388;-1.504;2022-08-21T09:32:36;5.93;;;1.58;;
67997;SDS011;54773;53.388;-1.504;2022-08-21T09:37:58;6.05;;;1.23;;
67997;SDS011;54773;53.388;-1.504;2022-08-21T09:43:26;5.78;;;1.48;;
67997;SDS011;54773;53.388;-1.504;2022-08-21T09:46:03;5.25;;;1.50;;
67997;SDS011;54773;53.388;-1.504;2022-08-21T09:48:42;7.75;;;1.60;;
67997;SDS011;54773;53.388;-1.504;2022-08-21T09:51:14;4.07;;;1.52;;
67997;SDS011;54773;53.388;-1.504;2022-08-21T09:56:33;5.13;;;1.70;;
67997;SDS011;54773;53.388;-1.504;2022-08-21T09:59:29;7.35;;;1.75;;
67997;SDS011;54773;53.388;-1.504;2022-08-21T10:01:58;5.65;;;1.80;;
67997;SDS011;54773;53.388;-1.504;2022-08-21T10:04:31;6.78;;;1.60;;
67997;SDS011;54773;53.388;-1.504;2022-08-21T10:07:09;6.05;;;1.75;;
67997;SDS011;54773;53.388;-1.504;2022-08-21T10:09:37;7.90;;;1.60;;
67997;SDS011;54773;53.388;-1.504;2022-08-21T10:20:12;7.10;;;1.50;;
67997;SDS011;54773;53.388;-1.504;2022-08-21T10:25:17;6.80;;;1.70;;
67997;SDS011;54773;53.388;-1.504;2022-08-21T10:38:44;6.38;;;1.40;;
67997;SDS011;54773;53.388;-1.504;2022-08-21T10:46:57;8.43;;;1.60;;
67997;SDS011;54773;53.388;-1.504;2022-08-21T10:52:02;6.85;;;1.80;;
67997;SDS011;54773;53.388;-1.504;2022-08-21T10:54:44;5.57;;;1.40;;
67997;SDS011;54773;53.388;-1.504;2022-08-21T10:57:59;8.13;;;1.52;;
67997;SDS011;54773;53.388;-1.504;2022-08-21T11:00:22;6.82;;;1.55;;
67997;SDS011;54773;53.388;-1.504;2022-08-21T11:03:03;6.53;;;1.80;;
67997;SDS011;54773;53.388;-1.504;2022-08-21T11:11:08;5.57;;;1.67;;
67997;SDS011;54773;53.388;-1.504;2022-08-21T11:13:47;5.90;;;1.63;;
67997;SDS011;54773;53.388;-1.504;2022-08-21T11:21:39;6.68;;;1.55;;
67997;SDS011;54773;53.388;-1.504;2022-08-21T11:24:35;7.50;;;1.90;;
67997;SDS011;54773;53.388;-1.504;2022-08-21T11:27:23;7.13;;;1.85;;
67997;SDS011;54773;53.388;-1.504;2022-08-21T11:29:53;4.78;;;1.92;;
67997;SDS011;54773;53.388;-1.504;2022-08-21T11:32:24;7.15;;;2.05;;
67997;SDS011;54773;53.388;-1.504;2022-08-21T11:40:41;7.00;;;1.85;;
67997;SDS011;54773;53.388;-1.504;2022-08-21T11:46:28;7.32;;;1.95;;
67997;SDS011;54773;53.388;-1.504;2022-08-21T11:52:01;4.20;;;1.50;;
67997;SDS011;54773;53.388;-1.504;2022-08-21T11:54:52;7.22;;;1.80;;
67997;SDS011;54773;53.388;-1.504;2022-08-21T11:57:39;8.75;;;2.88;;
67997;SDS011;54773;53.388;-1.504;2022-08-21T12:01:03;5.97;;;1.65;;
67997;SDS011;54773;53.388;-1.504;2022-08-21T12:06:05;5.30;;;1.98;;
67997;SDS011;54773;53.388;-1.504;2022-08-21T12:08:41;4.90;;;1.87;;
67997;SDS011;54773;53.388;-1.504;2022-08-21T12:13:54;6.07;;;1.60;;
67997;SDS011;54773;53.388;-1.504;2022-08-21T12:16:30;4.90;;;2.00;;
67997;SDS011;54773;53.388;-1.504;2022-08-21T12:19:09;6.90;;;1.70;;
67997;SDS011;54773;53.388;-1.504;2022-08-21T12:24:45;6.20;;;1.52;;
67997;SDS011;54773;53.388;-1.504;2022-08-21T12:27:13;5.35;;;1.80;;
67997;SDS011;54773;53.388;-1.504;2022-08-21T12:30:06;7.10;;;1.52;;
67997;SDS011;54773;53.388;-1.504;2022-08-21T12:32:45;7.28;;;1.52;;
67997;SDS011;54773;53.388;-1.504;2022-08-21T12:35:18;7.53;;;2.13;;
67997;SDS011;54773;53.388;-1.504;2022-08-21T12:37:50;6.50;;;1.48;;
67997;SDS011;54773;53.388;-1.504;2022-08-21T12:40:22;5.65;;;1.50;;
67997;SDS011;54773;53.388;-1.504;2022-08-21T12:42:51;5.55;;;1.60;;
67997;SDS011;54773;53.388;-1.504;2022-08-21T12:48:05;4.70;;;1.17;;
67997;SDS011;54773;53.388;-1.504;2022-08-21T12:55:51;3.88;;;1.35;;
67997;SDS011;54773;53.388;-1.504;2022-08-21T12:58:21;5.15;;;1.50;;
67997;SDS011;54773;53.388;-1.504;2022-08-21T13:00:50;4.45;;;1.60;;
67997;SDS011;54773;53.388;-1.504;2022-08-21T13:03:18;5.55;;;1.60;;
67997;SDS011;54773;53.388;-1.504;2022-08-21T13:05:45;4.55;;;1.58;;
67997;SDS011;54773;53.388;-1.504;2022-08-21T13:08:18;5.32;;;1.73;;
67997;SDS011;54773;53.388;-1.504;2022-08-21T13:10:44;5.17;;;1.57;;
67997;SDS011;54773;53.388;-1.504;2022-08-21T13:13:18;3.72;;;1.20;;
67997;SDS011;54773;53.388;-1.504;2022-08-21T13:15:46;4.10;;;1.30;;
67997;SDS011;54773;53.388;-1.504;2022-08-21T13:18:31;5.78;;;1.90;;
67997;SDS011;54773;53.388;-1.504;2022-08-21T13:21:03;4.50;;;1.40;;
67997;SDS011;54773;53.388;-1.504;2022-08-21T13:23:30;6.05;;;1.58;;
67997;SDS011;54773;53.388;-1.504;2022-08-21T13:25:56;3.30;;;1.25;;
67997;SDS011;54773;53.388;-1.504;2022-08-21T13:28:23;5.03;;;1.50;;
67997;SDS011;54773;53.388;-1.504;2022-08-21T13:30:50;3.25;;;1.30;;
67997;SDS011;54773;53.388;-1.504;2022-08-21T13:33:18;4.63;;;1.55;;
67997;SDS011;54773;53.388;-1.504;2022-08-21T13:35:50;7.07;;;1.30;;
67997;SDS011;54773;53.388;-1.504;2022-08-21T13:38:27;6.40;;;1.55;;
67997;SDS011;54773;53.388;-1.504;2022-08-21T13:40:59;8.48;;;1.63;;
67997;SDS011;54773;53.388;-1.504;2022-08-21T13:43:33;4.00;;;1.50;;
67997;SDS011;54773;53.388;-1.504;2022-08-21T13:46:00;5.22;;;1.60;;
67997;SDS011;54773;53.388;-1.504;2022-08-21T13:48:29;4.32;;;1.40;;
67997;SDS011;54773;53.388;-1.504;2022-08-21T13:50:58;5.15;;;1.83;;
67997;SDS011;54773;53.388;-1.504;2022-08-21T13:53:31;5.47;;;1.52;;
67997;SDS011;54773;53.388;-1.504;2022-08-21T13:56:00;6.97;;;1.58;;
67997;SDS011;54773;53.388;-1.504;2022-08-21T13:58:32;5.45;;;1.50;;
67997;SDS011;54773;53.388;-1.504;2022-08-21T14:01:15;5.65;;;1.65;;
67997;SDS011;54773;53.388;-1.504;2022-08-21T14:03:52;5.95;;;1.52;;
67997;SDS011;54773;53.388;-1.504;2022-08-21T14:06:24;4.03;;;1.60;;
67997;SDS011;54773;53.388;-1.504;2022-08-21T14:08:57;6.25;;;1.67;;
67997;SDS011;54773;53.388;-1.504;2022-08-21T14:11:27;6.95;;;1.40;;
67997;SDS011;54773;53.388;-1.504;2022-08-21T14:13:59;6.28;;;1.88;;
67997;SDS011;54773;53.388;-1.504;2022-08-21T14:16:27;5.72;;;1.40;;
67997;SDS011;54773;53.388;-1.504;2022-08-21T14:21:33;5.70;;;1.70;;
67997;SDS011;54773;53.388;-1.504;2022-08-21T14:27:21;4.95;;;1.67;;
67997;SDS011;54773;53.388;-1.504;2022-08-21T14:29:32;5.32;;;1.73;;
67997;SDS011;54773;53.388;-1.504;2022-08-21T14:32:00;5.13;;;1.73;;
67997;SDS011;54773;53.388;-1.504;2022-08-21T14:34:35;4.07;;;1.33;;
67997;SDS011;54773;53.388;-1.504;2022-08-21T14:37:00;4.80;;;1.67;;
67997;SDS011;54773;53.388;-1.504;2022-08-21T14:39:27;2.97;;;1.52;;
67997;SDS011;54773;53.388;-1.504;2022-08-21T14:41:53;3.70;;;1.50;;
67997;SDS011;54773;53.388;-1.504;2022-08-21T14:44:19;5.88;;;1.73;;
67997;SDS011;54773;53.388;-1.504;2022-08-21T14:46:45;4.65;;;1.48;;
67997;SDS011;54773;53.388;-1.504;2022-08-21T14:49:11;4.45;;;1.60;;
67997;SDS011;54773;53.388;-1.504;2022-08-21T14:51:37;4.90;;;1.55;;
67997;SDS011;54773;53.388;-1.504;2022-08-21T14:54:04;4.22;;;1.58;;
67997;SDS011;54773;53.388;-1.504;2022-08-21T14:56:30;4.97;;;1.50;;
67997;SDS011;54773;53.388;-1.504;2022-08-21T14:58:58;4.75;;;1.65;;
67997;SDS011;54773;53.388;-1.504;2022-08-21T15:01:27;4.00;;;1.70;;
67997;SDS011;54773;53.388;-1.504;2022-08-21T15:03:53;4.90;;;1.80;;
67997;SDS011;54773;53.388;-1.504;2022-08-21T15:06:19;3.60;;;1.60;;
67997;SDS011;54773;53.388;-1.504;2022-08-21T15:08:46;4.75;;;1.30;;
67997;SDS011;54773;53.388;-1.504;2022-08-21T15:11:12;4.50;;;1.42;;
67997;SDS011;54773;53.388;-1.504;2022-08-21T15:13:42;4.32;;;1.63;;
67997;SDS011;54773;53.388;-1.504;2022-08-21T15:16:09;3.88;;;1.50;;
67997;SDS011;54773;53.388;-1.504;2022-08-21T15:18:36;5.53;;;1.60;;
67997;SDS011;54773;53.388;-1.504;2022-08-21T15:21:05;3.55;;;1.52;;
67997;SDS011;54773;53.388;-1.504;2022-08-21T15:23:33;4.55;;;1.58;;
67997;SDS011;54773;53.388;-1.504;2022-08-21T15:25:59;3.83;;;1.65;;
67997;SDS011;54773;53.388;-1.504;2022-08-21T15:28:25;4.85;;;1.58;;
67997;SDS011;54773;53.388;-1.504;2022-08-21T15:30:51;4.80;;;1.60;;
67997;SDS011;54773;53.388;-1.504;2022-08-21T15:33:18;4.43;;;1.58;;
67997;SDS011;54773;53.388;-1.504;2022-08-21T15:35:44;4.93;;;1.83;;
67997;SDS011;54773;53.388;-1.504;2022-08-21T15:38:11;4.55;;;1.80;;
67997;SDS011;54773;53.388;-1.504;2022-08-21T15:40:39;4.63;;;1.67;;
67997;SDS011;54773;53.388;-1.504;2022-08-21T15:43:11;4.07;;;1.70;;
67997;SDS011;54773;53.388;-1.504;2022-08-21T15:45:49;4.05;;;1.60;;
67997;SDS011;54773;53.388;-1.504;2022-08-21T15:48:18;5.00;;;1.42;;
67997;SDS011;54773;53.388;-1.504;2022-08-21T15:50:44;4.32;;;1.70;;
67997;SDS011;54773;53.388;-1.504;2022-08-21T15:53:09;5.78;;;1.70;;
67997;SDS011;54773;53.388;-1.504;2022-08-21T15:55:35;6.07;;;1.77;;
67997;SDS011;54773;53.388;-1.504;2022-08-21T15:58:01;3.85;;;1.60;;
67997;SDS011;54773;53.388;-1.504;2022-08-21T16:00:29;4.53;;;1.80;;
67997;SDS011;54773;53.388;-1.504;2022-08-21T16:02:57;5.15;;;2.13;;
67997;SDS011;54773;53.388;-1.504;2022-08-21T16:05:24;5.70;;;1.73;;
67997;SDS011;54773;53.388;-1.504;2022-08-21T16:07:49;5.10;;;1.67;;
67997;SDS011;54773;53.388;-1.504;2022-08-21T16:10:16;5.40;;;1.63;;
67997;SDS011;54773;53.388;-1.504;2022-08-21T16:12:44;4.53;;;1.60;;
67997;SDS011;54773;53.388;-1.504;2022-08-21T16:15:13;6.95;;;1.65;;
67997;SDS011;54773;53.388;-1.504;2022-08-21T16:17:40;6.53;;;1.70;;
67997;SDS011;54773;53.388;-1.504;2022-08-21T16:20:11;4.57;;;1.75;;
67997;SDS011;54773;53.388;-1.504;2022-08-21T16:22:40;4.78;;;1.67;;
67997;SDS011;54773;53.388;-1.504;2022-08-21T16:25:06;6.97;;;1.50;;
67997;SDS011;54773;53.388;-1.504;2022-08-21T16:27:32;4.32;;;1.42;;